FFT310 PACD-PAWG
Flight info
| Callsign | FFT310 |
|---|---|
| Flight time | 2h 20m |
| Altitude | 35000 |
| Route | WETSI BINAL WAREX 56N155W ZENNA HMPTN LOHNE AKHOG TURKS HALKU |
| Aircraft | A320/M-SDE3FGHIRWY/LB1 |
Departure
| Time | 2026-04-29 17:33 |
|---|---|
| Airport | Cold Bay Airport (PACD) |
Arrival
| Time | 2026-04-29 19:54 |
|---|---|
| Airport | Wrangell Airport (PAWG) |
| Time | Latitude | Longitude | Altitude | Speed | Heading |
|---|---|---|---|---|---|
| 2026-04-29 16:45 | 55.20001 | -162.71760 | 102 ft | 0 kts | 272° |
| 2026-04-29 17:26 | 55.20001 | -162.71747 | 101 ft | 4 kts | 258° |
| 2026-04-29 17:27 | 55.20014 | -162.71726 | 102 ft | 4 kts | 184° |
| 2026-04-29 17:27 | 55.20030 | -162.71725 | 102 ft | 1 kts | 184° |
| 2026-04-29 17:27 | 55.20032 | -162.71724 | 101 ft | 0 kts | 184° |
| 2026-04-29 17:30 | 55.20029 | -162.71725 | 102 ft | 0 kts | 184° |
| 2026-04-29 17:31 | 55.22213 | -162.73784 | 86 ft | 1 kts | 158° |
| 2026-04-29 17:32 | 55.22202 | -162.73777 | 87 ft | 2 kts | 158° |
| 2026-04-29 17:32 | 55.22201 | -162.73776 | 87 ft | 0 kts | 158° |
| 2026-04-29 17:32 | 55.22168 | -162.73753 | 87 ft | 24 kts | 158° |
| 2026-04-29 17:33 | 55.21785 | -162.73484 | 86 ft | 91 kts | 158° |
| 2026-04-29 17:33 | 55.21026 | -162.72960 | 94 ft | 141 kts | 158° |
| 2026-04-29 17:33 | 55.20007 | -162.72224 | 301 ft | 165 kts | 157° |
| 2026-04-29 17:33 | 55.18921 | -162.71437 | 991 ft | 167 kts | 159° |
| 2026-04-29 17:34 | 55.17852 | -162.70686 | 1825 ft | 165 kts | 158° |
| 2026-04-29 17:34 | 55.16999 | -162.69259 | 2196 ft | 193 kts | 118° |
| 2026-04-29 17:34 | 55.16994 | -162.66715 | 2515 ft | 230 kts | 73° |
| 2026-04-29 17:34 | 55.18075 | -162.64485 | 2940 ft | 256 kts | 31° |
| 2026-04-29 17:35 | 55.20998 | -162.63275 | 4083 ft | 266 kts | 4° |
| 2026-04-29 17:35 | 55.23608 | -162.62977 | 4806 ft | 287 kts | 3° |
| 2026-04-29 17:35 | 55.25621 | -162.62666 | 5531 ft | 293 kts | 5° |
| 2026-04-29 17:36 | 55.27652 | -162.62209 | 6356 ft | 296 kts | 7° |
| 2026-04-29 17:36 | 55.29693 | -162.61626 | 7167 ft | 298 kts | 9° |
| 2026-04-29 17:36 | 55.31740 | -162.60954 | 7992 ft | 300 kts | 9° |
| 2026-04-29 17:36 | 55.33787 | -162.60231 | 8816 ft | 301 kts | 10° |
| 2026-04-29 17:37 | 55.35852 | -162.59483 | 9646 ft | 303 kts | 9° |
| 2026-04-29 17:37 | 55.37911 | -162.58626 | 10372 ft | 307 kts | 17° |
| 2026-04-29 17:37 | 55.39867 | -162.57032 | 11063 ft | 313 kts | 31° |
| 2026-04-29 17:37 | 55.41602 | -162.54670 | 11654 ft | 322 kts | 40° |
| 2026-04-29 17:38 | 55.43368 | -162.51928 | 11800 ft | 346 kts | 40° |
| 2026-04-29 17:38 | 55.45197 | -162.49089 | 12028 ft | 363 kts | 40° |
| 2026-04-29 17:38 | 55.47119 | -162.46111 | 12579 ft | 370 kts | 40° |
| 2026-04-29 17:38 | 55.49120 | -162.43015 | 13220 ft | 376 kts | 39° |
| 2026-04-29 17:39 | 55.51095 | -162.39955 | 13820 ft | 380 kts | 39° |
| 2026-04-29 17:39 | 55.53098 | -162.36848 | 14363 ft | 385 kts | 39° |
| 2026-04-29 17:39 | 55.55119 | -162.33708 | 14903 ft | 390 kts | 39° |
| 2026-04-29 17:39 | 55.57164 | -162.30524 | 15437 ft | 394 kts | 38° |
| 2026-04-29 17:40 | 55.59231 | -162.27298 | 15992 ft | 399 kts | 38° |
| 2026-04-29 17:40 | 55.61350 | -162.23988 | 16530 ft | 403 kts | 38° |
| 2026-04-29 17:40 | 55.63462 | -162.20683 | 17059 ft | 407 kts | 38° |
| 2026-04-29 17:40 | 55.65589 | -162.17350 | 17593 ft | 412 kts | 38° |
| 2026-04-29 17:41 | 55.67752 | -162.13955 | 18109 ft | 416 kts | 38° |
| 2026-04-29 17:41 | 55.69928 | -162.10536 | 18558 ft | 421 kts | 37° |
| 2026-04-29 17:41 | 55.72100 | -162.07013 | 19010 ft | 427 kts | 43° |
| 2026-04-29 17:41 | 55.73978 | -162.02866 | 19461 ft | 435 kts | 55° |
| 2026-04-29 17:42 | 55.75409 | -161.98095 | 19895 ft | 442 kts | 67° |
| 2026-04-29 17:42 | 55.76332 | -161.92864 | 20339 ft | 446 kts | 79° |
| 2026-04-29 17:42 | 55.76707 | -161.87390 | 20771 ft | 448 kts | 91° |
| 2026-04-29 17:42 | 55.76735 | -161.81839 | 21202 ft | 452 kts | 92° |
| 2026-04-29 17:43 | 55.76753 | -161.76225 | 21636 ft | 457 kts | 92° |
| 2026-04-29 17:43 | 55.76766 | -161.70558 | 22059 ft | 461 kts | 92° |
| 2026-04-29 17:43 | 55.76776 | -161.64835 | 22472 ft | 465 kts | 92° |
| 2026-04-29 17:43 | 55.76786 | -161.59067 | 22888 ft | 470 kts | 92° |
| 2026-04-29 17:44 | 55.76794 | -161.53252 | 23279 ft | 474 kts | 92° |
| 2026-04-29 17:44 | 55.76796 | -161.47284 | 23628 ft | 478 kts | 92° |
| 2026-04-29 17:44 | 55.76794 | -161.41057 | 23997 ft | 481 kts | 92° |
| 2026-04-29 17:44 | 55.76790 | -161.35098 | 24337 ft | 483 kts | 92° |
| 2026-04-29 17:45 | 55.76784 | -161.29115 | 24673 ft | 486 kts | 92° |
| 2026-04-29 17:45 | 55.76773 | -161.23091 | 25012 ft | 489 kts | 92° |
| 2026-04-29 17:45 | 55.76757 | -161.17041 | 25337 ft | 491 kts | 92° |
| 2026-04-29 17:45 | 55.76738 | -161.10974 | 25647 ft | 494 kts | 92° |
| 2026-04-29 17:46 | 55.76718 | -161.04852 | 25968 ft | 496 kts | 92° |
| 2026-04-29 17:46 | 55.76699 | -160.98716 | 26291 ft | 498 kts | 92° |
| 2026-04-29 17:46 | 55.76678 | -160.92551 | 26597 ft | 501 kts | 92° |
| 2026-04-29 17:46 | 55.76653 | -160.86347 | 26902 ft | 503 kts | 92° |
| 2026-04-29 17:47 | 55.76626 | -160.80494 | 27166 ft | 505 kts | 92° |
| 2026-04-29 17:47 | 55.76591 | -160.74231 | 27451 ft | 508 kts | 92° |
| 2026-04-29 17:47 | 55.76552 | -160.67940 | 27739 ft | 510 kts | 92° |
| 2026-04-29 17:47 | 55.76510 | -160.61638 | 28043 ft | 512 kts | 92° |
| 2026-04-29 17:48 | 55.76464 | -160.55293 | 28319 ft | 514 kts | 92° |
| 2026-04-29 17:48 | 55.76414 | -160.48937 | 28599 ft | 517 kts | 92° |
| 2026-04-29 17:48 | 55.76360 | -160.42461 | 28868 ft | 519 kts | 92° |
| 2026-04-29 17:48 | 55.76304 | -160.36047 | 29118 ft | 521 kts | 92° |
| 2026-04-29 17:49 | 55.76249 | -160.29596 | 29369 ft | 523 kts | 92° |
| 2026-04-29 17:49 | 55.76190 | -160.23120 | 29598 ft | 525 kts | 92° |
| 2026-04-29 17:49 | 55.76127 | -160.16628 | 29843 ft | 527 kts | 92° |
| 2026-04-29 17:49 | 55.76062 | -160.10111 | 30038 ft | 529 kts | 92° |
| 2026-04-29 17:50 | 55.75989 | -160.03592 | 30241 ft | 530 kts | 92° |
| 2026-04-29 17:50 | 55.75910 | -159.97038 | 30449 ft | 531 kts | 92° |
| 2026-04-29 17:50 | 55.75827 | -159.90496 | 30724 ft | 530 kts | 92° |
| 2026-04-29 17:50 | 55.75739 | -159.83948 | 31029 ft | 528 kts | 92° |
| 2026-04-29 17:51 | 55.75652 | -159.77441 | 31328 ft | 527 kts | 92° |
| 2026-04-29 17:51 | 55.75591 | -159.73047 | 31533 ft | 526 kts | 92° |
| 2026-04-29 17:51 | 55.75500 | -159.66575 | 31837 ft | 524 kts | 92° |
| 2026-04-29 17:51 | 55.75409 | -159.60119 | 32155 ft | 523 kts | 92° |
| 2026-04-29 17:52 | 55.75313 | -159.53670 | 32458 ft | 521 kts | 92° |
| 2026-04-29 17:52 | 55.75210 | -159.47240 | 32768 ft | 520 kts | 92° |
| 2026-04-29 17:52 | 55.75139 | -159.40857 | 33077 ft | 518 kts | 88° |
| 2026-04-29 17:52 | 55.75440 | -159.34401 | 33396 ft | 516 kts | 81° |
| 2026-04-29 17:53 | 55.75922 | -159.28014 | 33717 ft | 514 kts | 81° |
| 2026-04-29 17:53 | 55.76391 | -159.21747 | 34015 ft | 512 kts | 81° |
| 2026-04-29 17:53 | 55.76853 | -159.15474 | 34271 ft | 510 kts | 82° |
| 2026-04-29 17:53 | 55.77305 | -159.09233 | 34528 ft | 509 kts | 82° |
| 2026-04-29 17:54 | 55.77750 | -159.03006 | 34760 ft | 507 kts | 82° |
| 2026-04-29 17:54 | 55.78190 | -158.96793 | 34901 ft | 506 kts | 82° |
| 2026-04-29 17:54 | 55.78632 | -158.90524 | 34938 ft | 503 kts | 82° |
| 2026-04-29 17:55 | 55.79505 | -158.78213 | 34935 ft | 501 kts | 82° |
| 2026-04-29 17:55 | 55.80366 | -158.65910 | 34936 ft | 501 kts | 83° |
| 2026-04-29 17:56 | 55.81204 | -158.53612 | 34936 ft | 501 kts | 83° |
| 2026-04-29 17:56 | 55.82033 | -158.41310 | 34933 ft | 501 kts | 83° |
| 2026-04-29 17:57 | 55.82846 | -158.28996 | 34932 ft | 501 kts | 83° |
| 2026-04-29 17:57 | 55.83652 | -158.16674 | 34934 ft | 501 kts | 83° |
| 2026-04-29 17:58 | 55.84441 | -158.04368 | 34939 ft | 501 kts | 83° |
| 2026-04-29 17:58 | 55.85229 | -157.91943 | 34948 ft | 501 kts | 83° |
| 2026-04-29 17:59 | 55.85996 | -157.79638 | 34953 ft | 501 kts | 83° |
| 2026-04-29 17:59 | 55.86742 | -157.67310 | 34958 ft | 500 kts | 84° |
| 2026-04-29 18:00 | 55.87483 | -157.54997 | 34966 ft | 500 kts | 84° |
| 2026-04-29 18:00 | 55.88224 | -157.42420 | 34969 ft | 500 kts | 84° |
| 2026-04-29 18:01 | 55.88936 | -157.30109 | 34977 ft | 499 kts | 84° |
| 2026-04-29 18:01 | 55.89649 | -157.17790 | 34988 ft | 499 kts | 84° |
| 2026-04-29 18:02 | 55.90340 | -157.05497 | 34993 ft | 498 kts | 84° |
| 2026-04-29 18:02 | 55.91007 | -156.93204 | 34997 ft | 498 kts | 85° |
| 2026-04-29 18:03 | 55.91668 | -156.80925 | 34999 ft | 497 kts | 85° |
| 2026-04-29 18:03 | 55.92322 | -156.68658 | 35002 ft | 497 kts | 85° |
| 2026-04-29 18:04 | 55.92958 | -156.56386 | 35011 ft | 496 kts | 85° |
| 2026-04-29 18:04 | 55.93589 | -156.44122 | 35016 ft | 496 kts | 85° |
| 2026-04-29 18:05 | 55.94100 | -156.33869 | 35016 ft | 495 kts | 85° |
| 2026-04-29 18:05 | 55.94794 | -156.19587 | 35021 ft | 494 kts | 85° |
| 2026-04-29 18:06 | 55.95373 | -156.07379 | 35021 ft | 493 kts | 85° |
| 2026-04-29 18:06 | 55.95950 | -155.95184 | 35018 ft | 492 kts | 86° |
| 2026-04-29 18:07 | 55.96518 | -155.83015 | 35021 ft | 492 kts | 86° |
| 2026-04-29 18:07 | 55.97070 | -155.70769 | 35024 ft | 492 kts | 86° |
| 2026-04-29 18:08 | 55.97604 | -155.58595 | 35027 ft | 491 kts | 86° |
| 2026-04-29 18:08 | 55.98120 | -155.46436 | 35029 ft | 491 kts | 86° |
| 2026-04-29 18:09 | 55.98625 | -155.34262 | 35037 ft | 491 kts | 86° |
| 2026-04-29 18:09 | 55.99126 | -155.22106 | 35042 ft | 491 kts | 86° |
| 2026-04-29 18:10 | 55.99618 | -155.09950 | 35046 ft | 490 kts | 86° |
| 2026-04-29 18:10 | 56.00257 | -154.97825 | 35052 ft | 490 kts | 79° |
| 2026-04-29 18:11 | 56.01628 | -154.85886 | 35057 ft | 490 kts | 78° |
| 2026-04-29 18:11 | 56.03003 | -154.73953 | 35063 ft | 490 kts | 79° |
| 2026-04-29 18:12 | 56.04358 | -154.62009 | 35066 ft | 490 kts | 79° |
| 2026-04-29 18:12 | 56.05697 | -154.49978 | 35069 ft | 489 kts | 79° |
| 2026-04-29 18:13 | 56.06790 | -154.40066 | 35070 ft | 489 kts | 79° |
| 2026-04-29 18:13 | 56.08113 | -154.28117 | 35072 ft | 488 kts | 79° |
| 2026-04-29 18:14 | 56.09427 | -154.16202 | 35075 ft | 488 kts | 79° |
| 2026-04-29 18:14 | 56.10725 | -154.04279 | 35077 ft | 487 kts | 79° |
| 2026-04-29 18:15 | 56.12006 | -153.92274 | 35080 ft | 486 kts | 80° |
| 2026-04-29 18:15 | 56.13265 | -153.80382 | 35080 ft | 486 kts | 80° |
| 2026-04-29 18:16 | 56.14519 | -153.68489 | 35082 ft | 485 kts | 80° |
| 2026-04-29 18:16 | 56.15751 | -153.56598 | 35085 ft | 484 kts | 80° |
| 2026-04-29 18:17 | 56.16975 | -153.44718 | 35083 ft | 484 kts | 80° |
| 2026-04-29 18:17 | 56.18188 | -153.32838 | 35090 ft | 483 kts | 81° |
| 2026-04-29 18:18 | 56.19383 | -153.20987 | 35088 ft | 483 kts | 81° |
| 2026-04-29 18:18 | 56.20565 | -153.09131 | 35091 ft | 482 kts | 81° |
| 2026-04-29 18:19 | 56.21754 | -152.97104 | 35094 ft | 482 kts | 81° |
| 2026-04-29 18:19 | 56.22927 | -152.85159 | 35094 ft | 482 kts | 81° |
| 2026-04-29 18:20 | 56.24075 | -152.73313 | 35098 ft | 481 kts | 81° |
| 2026-04-29 18:20 | 56.25212 | -152.61456 | 35102 ft | 481 kts | 81° |
| 2026-04-29 18:21 | 56.26334 | -152.49617 | 35104 ft | 481 kts | 82° |
| 2026-04-29 18:21 | 56.27446 | -152.37750 | 35110 ft | 481 kts | 82° |
| 2026-04-29 18:22 | 56.28550 | -152.25893 | 35114 ft | 480 kts | 82° |
| 2026-04-29 18:22 | 56.29640 | -152.14039 | 35118 ft | 480 kts | 82° |
| 2026-04-29 18:23 | 56.30715 | -152.02181 | 35125 ft | 479 kts | 82° |
| 2026-04-29 18:23 | 56.31775 | -151.90330 | 35125 ft | 479 kts | 83° |
| 2026-04-29 18:24 | 56.32830 | -151.78483 | 35130 ft | 479 kts | 83° |
| 2026-04-29 18:24 | 56.33876 | -151.66635 | 35130 ft | 478 kts | 83° |
| 2026-04-29 18:25 | 56.34905 | -151.54785 | 35136 ft | 478 kts | 83° |
| 2026-04-29 18:25 | 56.35914 | -151.42942 | 35131 ft | 478 kts | 83° |
| 2026-04-29 18:26 | 56.36923 | -151.31017 | 35130 ft | 478 kts | 83° |
| 2026-04-29 18:26 | 56.37914 | -151.19186 | 35134 ft | 477 kts | 84° |
| 2026-04-29 18:27 | 56.38896 | -151.07352 | 35138 ft | 476 kts | 84° |
| 2026-04-29 18:27 | 56.39867 | -150.95529 | 35139 ft | 476 kts | 84° |
| 2026-04-29 18:28 | 56.40822 | -150.83719 | 35140 ft | 475 kts | 84° |
| 2026-04-29 18:28 | 56.41768 | -150.71906 | 35144 ft | 475 kts | 84° |
| 2026-04-29 18:29 | 56.42693 | -150.60106 | 35146 ft | 475 kts | 84° |
| 2026-04-29 18:29 | 56.43616 | -150.48305 | 35150 ft | 474 kts | 85° |
| 2026-04-29 18:30 | 56.44527 | -150.36518 | 35152 ft | 473 kts | 85° |
| 2026-04-29 18:30 | 56.45421 | -150.24660 | 35160 ft | 472 kts | 85° |
| 2026-04-29 18:31 | 56.46291 | -150.12906 | 35156 ft | 472 kts | 85° |
| 2026-04-29 18:31 | 56.47123 | -150.01154 | 35159 ft | 469 kts | 89° |
| 2026-04-29 18:32 | 56.47017 | -149.89435 | 35158 ft | 465 kts | 96° |
| 2026-04-29 18:32 | 56.46602 | -149.71928 | 35160 ft | 464 kts | 96° |
| 2026-04-29 18:33 | 56.46312 | -149.60258 | 35160 ft | 464 kts | 96° |
| 2026-04-29 18:33 | 56.46024 | -149.48608 | 35161 ft | 464 kts | 97° |
| 2026-04-29 18:34 | 56.45766 | -149.38936 | 35159 ft | 463 kts | 97° |
| 2026-04-29 18:34 | 56.45383 | -149.25340 | 35164 ft | 463 kts | 97° |
| 2026-04-29 18:35 | 56.45052 | -149.13721 | 35163 ft | 463 kts | 97° |
| 2026-04-29 18:35 | 56.44712 | -149.02098 | 35160 ft | 463 kts | 97° |
| 2026-04-29 18:36 | 56.44365 | -148.90490 | 35161 ft | 462 kts | 97° |
| 2026-04-29 18:36 | 56.44003 | -148.78892 | 35166 ft | 462 kts | 97° |
| 2026-04-29 18:37 | 56.43619 | -148.67234 | 35166 ft | 461 kts | 98° |
| 2026-04-29 18:37 | 56.43237 | -148.55676 | 35170 ft | 461 kts | 98° |
| 2026-04-29 18:38 | 56.42844 | -148.44111 | 35168 ft | 460 kts | 98° |
| 2026-04-29 18:38 | 56.42443 | -148.32585 | 35167 ft | 460 kts | 98° |
| 2026-04-29 18:39 | 56.42035 | -148.21068 | 35169 ft | 459 kts | 98° |
| 2026-04-29 18:39 | 56.41606 | -148.09569 | 35169 ft | 458 kts | 98° |
| 2026-04-29 18:40 | 56.41162 | -147.98095 | 35164 ft | 458 kts | 99° |
| 2026-04-29 18:40 | 56.40718 | -147.86626 | 35164 ft | 457 kts | 99° |
| 2026-04-29 18:41 | 56.39888 | -147.65612 | 35166 ft | 456 kts | 99° |
| 2026-04-29 18:42 | 56.39416 | -147.54203 | 35166 ft | 456 kts | 99° |
| 2026-04-29 18:42 | 56.38930 | -147.42799 | 35162 ft | 455 kts | 99° |
| 2026-04-29 18:43 | 56.38433 | -147.31428 | 35155 ft | 454 kts | 100° |
| 2026-04-29 18:43 | 56.37936 | -147.20079 | 35153 ft | 453 kts | 100° |
| 2026-04-29 18:44 | 56.37433 | -147.08754 | 35149 ft | 453 kts | 100° |
| 2026-04-29 18:44 | 56.36913 | -146.97435 | 35146 ft | 452 kts | 101° |
| 2026-04-29 18:45 | 56.36375 | -146.86155 | 35144 ft | 451 kts | 101° |
| 2026-04-29 18:45 | 56.35824 | -146.74869 | 35138 ft | 451 kts | 101° |
| 2026-04-29 18:46 | 56.35270 | -146.63533 | 35133 ft | 451 kts | 101° |
| 2026-04-29 18:46 | 56.34710 | -146.52279 | 35130 ft | 451 kts | 101° |
| 2026-04-29 18:47 | 56.34150 | -146.41025 | 35125 ft | 450 kts | 101° |
| 2026-04-29 18:47 | 56.33570 | -146.29790 | 35123 ft | 450 kts | 102° |
| 2026-04-29 18:48 | 56.32973 | -146.18562 | 35119 ft | 450 kts | 102° |
| 2026-04-29 18:48 | 56.32377 | -146.07339 | 35117 ft | 450 kts | 102° |
| 2026-04-29 18:49 | 56.31766 | -145.96120 | 35121 ft | 450 kts | 102° |
| 2026-04-29 18:49 | 56.31144 | -145.84914 | 35116 ft | 449 kts | 103° |
| 2026-04-29 18:50 | 56.30520 | -145.73730 | 35115 ft | 449 kts | 103° |
| 2026-04-29 18:50 | 56.29881 | -145.62543 | 35123 ft | 449 kts | 103° |
| 2026-04-29 18:51 | 56.29232 | -145.51364 | 35114 ft | 448 kts | 103° |
| 2026-04-29 18:51 | 56.28573 | -145.40206 | 35114 ft | 448 kts | 103° |
| 2026-04-29 18:52 | 56.27906 | -145.29066 | 35112 ft | 448 kts | 104° |
| 2026-04-29 18:52 | 56.27231 | -145.17919 | 35108 ft | 447 kts | 104° |
| 2026-04-29 18:53 | 56.26546 | -145.06788 | 35105 ft | 447 kts | 104° |
| 2026-04-29 18:53 | 56.25845 | -144.95621 | 35103 ft | 446 kts | 104° |
| 2026-04-29 18:54 | 56.25141 | -144.84545 | 35097 ft | 445 kts | 105° |
| 2026-04-29 18:54 | 56.24420 | -144.73484 | 35097 ft | 445 kts | 105° |
| 2026-04-29 18:55 | 56.23701 | -144.62463 | 35091 ft | 444 kts | 105° |
| 2026-04-29 18:55 | 56.22974 | -144.51458 | 35091 ft | 443 kts | 105° |
| 2026-04-29 18:56 | 56.22237 | -144.40473 | 35085 ft | 442 kts | 105° |
| 2026-04-29 18:56 | 56.21495 | -144.29519 | 35077 ft | 441 kts | 105° |
| 2026-04-29 18:57 | 56.20746 | -144.18591 | 35072 ft | 440 kts | 106° |
| 2026-04-29 18:57 | 56.19968 | -144.07687 | 35061 ft | 440 kts | 106° |
| 2026-04-29 18:58 | 56.19774 | -143.96598 | 35057 ft | 456 kts | 90° |
| 2026-04-29 18:58 | 56.20829 | -143.85299 | 35045 ft | 459 kts | 89° |
| 2026-04-29 18:59 | 56.21871 | -143.74007 | 35042 ft | 458 kts | 90° |
| 2026-04-29 18:59 | 56.22890 | -143.62641 | 35036 ft | 457 kts | 90° |
| 2026-04-29 19:00 | 56.23904 | -143.51201 | 35028 ft | 457 kts | 90° |
| 2026-04-29 19:00 | 56.24910 | -143.39850 | 35011 ft | 457 kts | 90° |
| 2026-04-29 19:01 | 56.25905 | -143.28580 | 35009 ft | 456 kts | 90° |
| 2026-04-29 19:01 | 56.26882 | -143.17295 | 35005 ft | 456 kts | 90° |
| 2026-04-29 19:02 | 56.27690 | -143.07856 | 35000 ft | 456 kts | 91° |
| 2026-04-29 19:02 | 56.28803 | -142.94677 | 34994 ft | 456 kts | 91° |
| 2026-04-29 19:03 | 56.29748 | -142.83388 | 34984 ft | 456 kts | 91° |
| 2026-04-29 19:03 | 56.30685 | -142.72114 | 34982 ft | 455 kts | 91° |
| 2026-04-29 19:04 | 56.31607 | -142.60833 | 34981 ft | 455 kts | 91° |
| 2026-04-29 19:04 | 56.32522 | -142.49547 | 34973 ft | 456 kts | 91° |
| 2026-04-29 19:05 | 56.33427 | -142.38241 | 34970 ft | 456 kts | 91° |
| 2026-04-29 19:05 | 56.34319 | -142.26939 | 34963 ft | 455 kts | 91° |
| 2026-04-29 19:06 | 56.35204 | -142.15625 | 34960 ft | 456 kts | 91° |
| 2026-04-29 19:07 | 56.36513 | -141.98656 | 34949 ft | 456 kts | 91° |
| 2026-04-29 19:07 | 56.37372 | -141.87337 | 34947 ft | 455 kts | 91° |
| 2026-04-29 19:08 | 56.38215 | -141.75996 | 34937 ft | 455 kts | 91° |
| 2026-04-29 19:08 | 56.38913 | -141.66499 | 34934 ft | 456 kts | 91° |
| 2026-04-29 19:09 | 56.39741 | -141.55172 | 34932 ft | 456 kts | 91° |
| 2026-04-29 19:09 | 56.40559 | -141.43803 | 34930 ft | 456 kts | 91° |
| 2026-04-29 19:10 | 56.41372 | -141.32437 | 34927 ft | 457 kts | 91° |
| 2026-04-29 19:10 | 56.42172 | -141.21043 | 34928 ft | 457 kts | 92° |
| 2026-04-29 19:11 | 56.42957 | -141.09646 | 34926 ft | 458 kts | 92° |
| 2026-04-29 19:11 | 56.43734 | -140.98223 | 34930 ft | 458 kts | 92° |
| 2026-04-29 19:12 | 56.44507 | -140.86795 | 34934 ft | 458 kts | 92° |
| 2026-04-29 19:12 | 56.45271 | -140.75286 | 34936 ft | 458 kts | 92° |
| 2026-04-29 19:13 | 56.46024 | -140.63830 | 34939 ft | 459 kts | 92° |
| 2026-04-29 19:13 | 56.46764 | -140.52363 | 34940 ft | 459 kts | 92° |
| 2026-04-29 19:14 | 56.47494 | -140.40882 | 34944 ft | 460 kts | 92° |
| 2026-04-29 19:14 | 56.48212 | -140.29404 | 34944 ft | 459 kts | 92° |
| 2026-04-29 19:15 | 56.48920 | -140.17910 | 34956 ft | 460 kts | 92° |
| 2026-04-29 19:15 | 56.49619 | -140.06401 | 34959 ft | 460 kts | 92° |
| 2026-04-29 19:16 | 56.50615 | -139.94899 | 34963 ft | 468 kts | 85° |
| 2026-04-29 19:16 | 56.52039 | -139.83395 | 34969 ft | 468 kts | 85° |
| 2026-04-29 19:17 | 56.53468 | -139.71874 | 34975 ft | 469 kts | 85° |
| 2026-04-29 19:17 | 56.54866 | -139.60337 | 34982 ft | 469 kts | 86° |
| 2026-04-29 19:18 | 56.56244 | -139.48785 | 34991 ft | 469 kts | 86° |
| 2026-04-29 19:18 | 56.57631 | -139.37129 | 34993 ft | 470 kts | 86° |
| 2026-04-29 19:19 | 56.59005 | -139.25534 | 35002 ft | 470 kts | 86° |
| 2026-04-29 19:19 | 56.60362 | -139.13928 | 35006 ft | 471 kts | 86° |
| 2026-04-29 19:20 | 56.61708 | -139.02288 | 35014 ft | 471 kts | 86° |
| 2026-04-29 19:20 | 56.63041 | -138.90651 | 35019 ft | 471 kts | 86° |
| 2026-04-29 19:21 | 56.64376 | -138.78989 | 35023 ft | 471 kts | 86° |
| 2026-04-29 19:21 | 56.65700 | -138.67317 | 35027 ft | 472 kts | 86° |
| 2026-04-29 19:22 | 56.67013 | -138.55628 | 35033 ft | 472 kts | 86° |
| 2026-04-29 19:22 | 56.68311 | -138.43921 | 35052 ft | 472 kts | 86° |
| 2026-04-29 19:23 | 56.69594 | -138.32200 | 35048 ft | 473 kts | 86° |
| 2026-04-29 19:23 | 56.70868 | -138.20463 | 35051 ft | 473 kts | 86° |
| 2026-04-29 19:24 | 56.72148 | -138.08632 | 35055 ft | 473 kts | 86° |
| 2026-04-29 19:24 | 56.73412 | -137.96879 | 35064 ft | 473 kts | 86° |
| 2026-04-29 19:25 | 56.74655 | -137.85115 | 35073 ft | 473 kts | 86° |
| 2026-04-29 19:25 | 56.75887 | -137.73319 | 35081 ft | 474 kts | 86° |
| 2026-04-29 19:26 | 56.77112 | -137.61514 | 35086 ft | 474 kts | 86° |
| 2026-04-29 19:26 | 56.78326 | -137.49712 | 35088 ft | 473 kts | 86° |
| 2026-04-29 19:27 | 56.79533 | -137.37904 | 35096 ft | 474 kts | 86° |
| 2026-04-29 19:27 | 56.80723 | -137.26085 | 35100 ft | 474 kts | 86° |
| 2026-04-29 19:28 | 56.81900 | -137.14250 | 35110 ft | 474 kts | 86° |
| 2026-04-29 19:28 | 56.83075 | -137.02390 | 35116 ft | 474 kts | 86° |
| 2026-04-29 19:29 | 56.84234 | -136.90510 | 35132 ft | 475 kts | 86° |
| 2026-04-29 19:29 | 56.85383 | -136.78642 | 35131 ft | 475 kts | 86° |
| 2026-04-29 19:30 | 56.86527 | -136.66677 | 35137 ft | 475 kts | 86° |
| 2026-04-29 19:30 | 56.87649 | -136.54840 | 35141 ft | 475 kts | 86° |
| 2026-04-29 19:31 | 56.88767 | -136.42865 | 35146 ft | 475 kts | 86° |
| 2026-04-29 19:31 | 56.89146 | -136.30972 | 35156 ft | 462 kts | 102° |
| 2026-04-29 19:32 | 56.88575 | -136.19274 | 35161 ft | 462 kts | 102° |
| 2026-04-29 19:32 | 56.87993 | -136.07559 | 35167 ft | 463 kts | 102° |
| 2026-04-29 19:33 | 56.87406 | -135.95828 | 35172 ft | 463 kts | 102° |
| 2026-04-29 19:33 | 56.86801 | -135.84021 | 35182 ft | 464 kts | 102° |
| 2026-04-29 19:34 | 56.86194 | -135.72263 | 35190 ft | 464 kts | 102° |
| 2026-04-29 19:34 | 56.85887 | -135.66404 | 34831 ft | 463 kts | 102° |
| 2026-04-29 19:34 | 56.85574 | -135.60557 | 34296 ft | 460 kts | 102° |
| 2026-04-29 19:34 | 56.85264 | -135.54754 | 33768 ft | 456 kts | 102° |
| 2026-04-29 19:35 | 56.84956 | -135.49016 | 33262 ft | 452 kts | 102° |
| 2026-04-29 19:35 | 56.84647 | -135.43341 | 32788 ft | 447 kts | 102° |
| 2026-04-29 19:35 | 56.84337 | -135.37706 | 32340 ft | 443 kts | 102° |
| 2026-04-29 19:35 | 56.84029 | -135.32138 | 31901 ft | 439 kts | 103° |
| 2026-04-29 19:36 | 56.83720 | -135.26624 | 31424 ft | 435 kts | 102° |
| 2026-04-29 19:36 | 56.83478 | -135.22337 | 31077 ft | 431 kts | 103° |
| 2026-04-29 19:36 | 56.83170 | -135.16920 | 30638 ft | 427 kts | 102° |
| 2026-04-29 19:36 | 56.82860 | -135.11536 | 30190 ft | 423 kts | 103° |
| 2026-04-29 19:37 | 56.82549 | -135.06218 | 29684 ft | 420 kts | 103° |
| 2026-04-29 19:37 | 56.82342 | -135.02713 | 29364 ft | 417 kts | 103° |
| 2026-04-29 19:37 | 56.81929 | -134.95708 | 28762 ft | 413 kts | 103° |
| 2026-04-29 19:37 | 56.81623 | -134.90529 | 28291 ft | 409 kts | 103° |
| 2026-04-29 19:38 | 56.81320 | -134.85401 | 27845 ft | 405 kts | 103° |
| 2026-04-29 19:38 | 56.81016 | -134.80300 | 27393 ft | 402 kts | 103° |
| 2026-04-29 19:38 | 56.80711 | -134.75181 | 26967 ft | 400 kts | 103° |
| 2026-04-29 19:38 | 56.80407 | -134.70155 | 26545 ft | 396 kts | 103° |
| 2026-04-29 19:39 | 56.80098 | -134.65179 | 26107 ft | 393 kts | 103° |
| 2026-04-29 19:39 | 56.79794 | -134.60248 | 25670 ft | 390 kts | 103° |
| 2026-04-29 19:39 | 56.79491 | -134.55345 | 25249 ft | 387 kts | 103° |
| 2026-04-29 19:39 | 56.79187 | -134.50469 | 24821 ft | 385 kts | 103° |
| 2026-04-29 19:40 | 56.78883 | -134.45656 | 24410 ft | 382 kts | 103° |
| 2026-04-29 19:40 | 56.78577 | -134.40826 | 23995 ft | 379 kts | 103° |
| 2026-04-29 19:40 | 56.78274 | -134.36095 | 23562 ft | 376 kts | 103° |
| 2026-04-29 19:40 | 56.77932 | -134.30744 | 23021 ft | 373 kts | 103° |
| 2026-04-29 19:41 | 56.77633 | -134.26067 | 22562 ft | 370 kts | 103° |
| 2026-04-29 19:41 | 56.77330 | -134.21352 | 22102 ft | 368 kts | 103° |
| 2026-04-29 19:41 | 56.77029 | -134.16734 | 21681 ft | 365 kts | 103° |
| 2026-04-29 19:41 | 56.76730 | -134.12154 | 21258 ft | 363 kts | 103° |
| 2026-04-29 19:42 | 56.76429 | -134.07592 | 20849 ft | 361 kts | 103° |
| 2026-04-29 19:42 | 56.76328 | -134.06058 | 20722 ft | 360 kts | 103° |
| 2026-04-29 19:42 | 56.75831 | -133.98562 | 20054 ft | 356 kts | 103° |
| 2026-04-29 19:42 | 56.75534 | -133.94096 | 19655 ft | 354 kts | 103° |
| 2026-04-29 19:43 | 56.75335 | -133.91153 | 19397 ft | 353 kts | 103° |
| 2026-04-29 19:43 | 56.75017 | -133.86482 | 18996 ft | 351 kts | 103° |
| 2026-04-29 19:43 | 56.74717 | -133.82092 | 18619 ft | 349 kts | 103° |
| 2026-04-29 19:43 | 56.74416 | -133.77717 | 18190 ft | 347 kts | 103° |
| 2026-04-29 19:44 | 56.74117 | -133.73373 | 17772 ft | 345 kts | 103° |
| 2026-04-29 19:44 | 56.73819 | -133.69044 | 17357 ft | 344 kts | 103° |
| 2026-04-29 19:44 | 56.73517 | -133.64674 | 16953 ft | 342 kts | 103° |
| 2026-04-29 19:44 | 56.73225 | -133.60451 | 16580 ft | 340 kts | 103° |
| 2026-04-29 19:45 | 56.72922 | -133.56125 | 16194 ft | 339 kts | 102° |
| 2026-04-29 19:45 | 56.72616 | -133.51839 | 15805 ft | 337 kts | 102° |
| 2026-04-29 19:45 | 56.72303 | -133.47533 | 15417 ft | 336 kts | 103° |
| 2026-04-29 19:45 | 56.71632 | -133.43577 | 15057 ft | 323 kts | 123° |
| 2026-04-29 19:46 | 56.70610 | -133.39942 | 14667 ft | 326 kts | 113° |
| 2026-04-29 19:46 | 56.70257 | -133.35818 | 14315 ft | 332 kts | 98° |
| 2026-04-29 19:46 | 56.70094 | -133.31620 | 13927 ft | 332 kts | 98° |
| 2026-04-29 19:46 | 56.69931 | -133.27416 | 13576 ft | 330 kts | 99° |
| 2026-04-29 19:47 | 56.69606 | -133.23306 | 13235 ft | 324 kts | 106° |
| 2026-04-29 19:47 | 56.69031 | -133.19001 | 12864 ft | 319 kts | 110° |
| 2026-04-29 19:47 | 56.68418 | -133.15137 | 12546 ft | 314 kts | 111° |
| 2026-04-29 19:47 | 56.67802 | -133.11382 | 12393 ft | 305 kts | 111° |
| 2026-04-29 19:48 | 56.67206 | -133.07703 | 12123 ft | 301 kts | 111° |
| 2026-04-29 19:48 | 56.66815 | -133.05242 | 11879 ft | 299 kts | 110° |
| 2026-04-29 19:48 | 56.66061 | -133.00384 | 11420 ft | 297 kts | 110° |
| 2026-04-29 19:48 | 56.65523 | -132.96834 | 11105 ft | 295 kts | 110° |
| 2026-04-29 19:49 | 56.64984 | -132.93246 | 10797 ft | 292 kts | 109° |
| 2026-04-29 19:49 | 56.64463 | -132.89742 | 10667 ft | 283 kts | 109° |
| 2026-04-29 19:49 | 56.63956 | -132.86345 | 10537 ft | 274 kts | 110° |
| 2026-04-29 19:49 | 56.63267 | -132.83191 | 10421 ft | 258 kts | 124° |
| 2026-04-29 19:50 | 56.62183 | -132.80614 | 9857 ft | 260 kts | 140° |
| 2026-04-29 19:50 | 56.60711 | -132.78658 | 9174 ft | 262 kts | 152° |
| 2026-04-29 19:50 | 56.59140 | -132.76949 | 8417 ft | 264 kts | 152° |
| 2026-04-29 19:50 | 56.57693 | -132.74881 | 7652 ft | 269 kts | 134° |
| 2026-04-29 19:51 | 56.56707 | -132.71981 | 6909 ft | 275 kts | 116° |
| 2026-04-29 19:51 | 56.55968 | -132.68751 | 5956 ft | 280 kts | 116° |
| 2026-04-29 19:51 | 56.55211 | -132.65467 | 5040 ft | 284 kts | 116° |
| 2026-04-29 19:51 | 56.54441 | -132.62135 | 4000 ft | 288 kts | 115° |
| 2026-04-29 19:52 | 56.53676 | -132.58825 | 3395 ft | 275 kts | 115° |
| 2026-04-29 19:52 | 56.53042 | -132.55687 | 2638 ft | 259 kts | 107° |
| 2026-04-29 19:52 | 56.52584 | -132.52652 | 2274 ft | 239 kts | 106° |
| 2026-04-29 19:52 | 56.52148 | -132.49866 | 1923 ft | 222 kts | 110° |
| 2026-04-29 19:53 | 56.51629 | -132.47329 | 1609 ft | 207 kts | 113° |
| 2026-04-29 19:53 | 56.51058 | -132.45068 | 1406 ft | 187 kts | 116° |
| 2026-04-29 19:53 | 56.50506 | -132.43034 | 1108 ft | 175 kts | 119° |
| 2026-04-29 19:53 | 56.49876 | -132.41150 | 577 ft | 177 kts | 122° |
| 2026-04-29 19:54 | 56.48756 | -132.37935 | 36 ft | 151 kts | 120° |
| 2026-04-29 19:54 | 56.48400 | -132.36883 | 36 ft | 40 kts | 122° |
| 2026-04-29 19:54 | 56.48340 | -132.36758 | 35 ft | 2 kts | 56° |
| 2026-04-29 19:55 | 56.48373 | -132.36809 | 36 ft | 12 kts | 295° |
| 2026-04-29 19:55 | 56.48434 | -132.36985 | 35 ft | 20 kts | 302° |
| 2026-04-29 19:55 | 56.48506 | -132.37208 | 36 ft | 21 kts | 295° |
| 2026-04-29 19:55 | 56.48511 | -132.37482 | 36 ft | 23 kts | 269° |
| 2026-04-29 19:56 | 56.48509 | -132.37765 | 36 ft | 16 kts | 271° |
| 2026-04-29 19:56 | 56.48536 | -132.37896 | 36 ft | 8 kts | 301° |
| 2026-04-29 19:56 | 56.48541 | -132.37910 | 36 ft | 0 kts | 299° |
| 2026-04-29 19:56 | 56.48541 | -132.37911 | 36 ft | 0 kts | 299° |
| 2026-04-29 19:57 | 56.48543 | -132.37917 | 36 ft | 2 kts | 300° |
| 2026-04-29 19:57 | 56.48544 | -132.37921 | 36 ft | 0 kts | 300° |